createdAt,value
2022-11-17T00:02:22.231Z,6.53
2022-11-17T00:04:50.636Z,6.13
2022-11-17T00:07:19.008Z,5.83
2022-11-17T00:09:47.462Z,7.17
2022-11-17T00:12:33.336Z,5.50
2022-11-17T00:15:01.714Z,5.47
2022-11-17T00:17:31.447Z,6.27
2022-11-17T00:20:17.198Z,5.27
2022-11-17T00:22:45.540Z,5.43
2022-11-17T00:25:13.901Z,6.07
2022-11-17T00:27:42.229Z,7.00
2022-11-17T00:30:30.901Z,5.73
2022-11-17T00:33:20.673Z,3.97
2022-11-17T00:35:52.201Z,5.27
2022-11-17T00:38:20.488Z,4.83
2022-11-17T00:40:48.787Z,5.90
2022-11-17T00:43:17.290Z,4.70
2022-11-17T00:45:45.552Z,3.83
2022-11-17T00:48:15.241Z,5.63
2022-11-17T00:50:43.584Z,4.07
2022-11-17T00:53:11.907Z,5.20
2022-11-17T00:55:40.211Z,6.47
2022-11-17T00:58:08.516Z,5.40
2022-11-17T01:00:36.841Z,5.20
2022-11-17T01:03:05.130Z,5.40
2022-11-17T01:05:35.964Z,4.93
2022-11-17T01:08:04.302Z,6.00
2022-11-17T01:10:32.691Z,5.33
2022-11-17T01:13:01.014Z,6.10
2022-11-17T01:15:29.431Z,5.30
2022-11-17T01:17:57.750Z,5.37
2022-11-17T01:20:26.089Z,6.80
2022-11-17T01:22:57.136Z,5.20
2022-11-17T01:25:25.480Z,5.63
2022-11-17T01:27:53.823Z,6.87
2022-11-17T01:30:22.169Z,6.87
2022-11-17T01:32:50.473Z,5.60
2022-11-17T01:35:18.888Z,5.47
2022-11-17T01:37:47.173Z,4.73
2022-11-17T01:40:17.084Z,6.67
2022-11-17T01:42:45.411Z,4.83
2022-11-17T01:45:20.601Z,4.13
2022-11-17T01:47:51.579Z,3.63
2022-11-17T01:50:31.434Z,5.07
2022-11-17T01:53:01.349Z,4.83
2022-11-17T01:55:34.133Z,5.37
2022-11-17T01:58:04.550Z,5.17
2022-11-17T02:00:33.057Z,5.20
2022-11-17T02:03:01.706Z,5.23
2022-11-17T02:05:36.978Z,5.03
2022-11-17T02:08:07.254Z,4.80
2022-11-17T02:10:37.724Z,5.67
2022-11-17T02:13:06.378Z,6.57
2022-11-17T02:15:34.709Z,6.33
2022-11-17T02:18:03.394Z,6.40
2022-11-17T02:20:46.659Z,6.60
2022-11-17T02:23:36.166Z,5.73
2022-11-17T02:26:22.406Z,7.70
2022-11-17T02:28:56.764Z,6.27
2022-11-17T02:31:29.877Z,6.70
2022-11-17T02:34:04.617Z,6.90
2022-11-17T02:36:35.151Z,5.30
2022-11-17T02:39:12.001Z,6.17
2022-11-17T02:41:46.185Z,3.77
2022-11-17T02:44:17.090Z,4.73
2022-11-17T02:46:46.356Z,2.27
2022-11-17T02:49:17.741Z,2.87
2022-11-17T02:51:46.610Z,3.77
2022-11-17T02:54:15.026Z,3.27
2022-11-17T02:56:43.595Z,3.37
2022-11-17T02:59:13.389Z,3.97
2022-11-17T03:01:56.627Z,4.27
2022-11-17T03:04:31.728Z,3.27
2022-11-17T03:07:06.207Z,4.70
2022-11-17T03:09:38.696Z,2.50
2022-11-17T03:12:11.719Z,2.60
2022-11-17T03:14:45.338Z,2.80
2022-11-17T03:17:16.342Z,2.80
2022-11-17T03:19:48.427Z,3.17
2022-11-17T03:22:18.990Z,2.40
2022-11-17T03:24:49.720Z,2.40
2022-11-17T03:27:19.740Z,2.77
2022-11-17T03:29:49.323Z,3.50
2022-11-17T03:32:18.825Z,2.80
2022-11-17T03:34:57.693Z,2.70
2022-11-17T03:37:28.168Z,3.17
2022-11-17T03:39:59.247Z,2.80
2022-11-17T03:42:29.168Z,2.67
2022-11-17T03:44:58.568Z,2.63
2022-11-17T03:47:28.579Z,2.17
2022-11-17T03:50:01.365Z,2.93
2022-11-17T03:52:30.646Z,2.97
2022-11-17T03:54:59.264Z,2.30
2022-11-17T03:57:31.338Z,2.40
2022-11-17T04:00:02.640Z,2.50
2022-11-17T04:02:31.043Z,2.13
2022-11-17T04:05:06.729Z,2.53
2022-11-17T04:07:35.362Z,2.17
2022-11-17T04:10:03.970Z,2.63
2022-11-17T04:12:49.965Z,3.17
2022-11-17T04:15:47.406Z,2.50
2022-11-17T04:18:16.052Z,2.13
2022-11-17T04:20:45.922Z,2.83
2022-11-17T04:23:15.281Z,2.90
2022-11-17T04:26:02.599Z,2.73
2022-11-17T04:28:37.847Z,2.93
2022-11-17T04:31:07.266Z,2.57
2022-11-17T04:33:36.275Z,2.47
2022-11-17T04:36:06.601Z,2.40
2022-11-17T04:38:35.180Z,2.17
2022-11-17T04:41:22.005Z,2.50
2022-11-17T04:43:50.414Z,2.13
2022-11-17T04:46:19.080Z,2.17
2022-11-17T04:48:47.740Z,2.17
2022-11-17T04:51:17.844Z,1.93
2022-11-17T04:53:46.478Z,1.93
2022-11-17T04:56:14.849Z,2.10
2022-11-17T04:58:43.659Z,2.20
2022-11-17T05:01:15.806Z,3.20
2022-11-17T05:03:45.064Z,2.67
2022-11-17T05:06:14.676Z,2.27
2022-11-17T05:08:44.747Z,2.37
2022-11-17T05:11:31.677Z,2.90
2022-11-17T05:14:00.467Z,2.97
2022-11-17T05:16:46.428Z,2.70
2022-11-17T05:19:15.935Z,2.90
2022-11-17T05:21:44.291Z,3.10
2022-11-17T05:24:14.354Z,3.17
2022-11-17T05:26:43.338Z,3.50
2022-11-17T05:29:12.170Z,3.47
2022-11-17T05:31:40.543Z,3.17
2022-11-17T05:34:09.640Z,4.07
2022-11-17T05:36:37.995Z,3.43
2022-11-17T05:39:06.811Z,3.43
2022-11-17T05:41:37.120Z,3.30
2022-11-17T05:44:05.802Z,3.07
2022-11-17T05:46:34.106Z,2.73
2022-11-17T05:49:02.496Z,3.80
2022-11-17T05:51:32.292Z,3.43
2022-11-17T05:54:00.705Z,3.27
2022-11-17T05:56:34.760Z,3.53
2022-11-17T05:59:08.566Z,3.53
2022-11-17T06:01:38.440Z,3.70
2022-11-17T06:04:07.341Z,3.33
2022-11-17T06:06:36.301Z,3.83
2022-11-17T06:09:04.672Z,3.53
2022-11-17T06:11:33.065Z,3.77
2022-11-17T06:14:01.373Z,3.60
2022-11-17T06:16:34.705Z,4.60
2022-11-17T06:19:05.001Z,4.03
2022-11-17T06:21:43.326Z,3.53
2022-11-17T06:24:22.058Z,5.33
2022-11-17T06:26:50.505Z,4.13
2022-11-17T06:29:18.858Z,5.30
2022-11-17T06:31:48.818Z,5.40
2022-11-17T06:34:17.542Z,5.47
2022-11-17T06:36:45.862Z,3.83
2022-11-17T06:39:14.201Z,5.73
2022-11-17T06:41:42.527Z,3.97
2022-11-17T06:44:10.802Z,3.87
2022-11-17T06:46:39.143Z,4.30
2022-11-17T06:49:09.745Z,3.73
2022-11-17T06:51:42.285Z,3.90
2022-11-17T06:54:14.952Z,3.07
2022-11-17T06:56:43.753Z,3.13
2022-11-17T06:59:12.155Z,1.83
2022-11-17T07:01:40.707Z,0.60
2022-11-17T07:04:10.510Z,1.80
2022-11-17T07:06:39.054Z,1.63
2022-11-17T07:09:07.448Z,2.30
2022-11-17T07:11:36.403Z,1.63
2022-11-17T07:14:04.852Z,1.80
2022-11-17T07:16:33.328Z,1.30
2022-11-17T07:19:03.810Z,1.33
2022-11-17T07:21:34.692Z,2.63
2022-11-17T07:24:03.187Z,2.63
2022-11-17T07:26:31.740Z,1.50
2022-11-17T07:29:00.280Z,3.03
2022-11-17T07:31:28.721Z,3.07
2022-11-17T07:33:57.255Z,3.77
2022-11-17T07:36:25.719Z,4.07
2022-11-17T07:38:55.579Z,4.33
2022-11-17T07:41:24.074Z,3.83
2022-11-17T07:43:55.944Z,3.50
2022-11-17T07:46:25.825Z,1.77
2022-11-17T07:48:55.458Z,2.47
2022-11-17T07:51:25.634Z,4.27
2022-11-17T07:53:55.475Z,4.37
2022-11-17T07:56:24.021Z,3.87
2022-11-17T07:58:52.666Z,3.67
2022-11-17T08:01:21.209Z,2.60
2022-11-17T08:03:49.793Z,3.77
2022-11-17T08:06:18.201Z,3.10
2022-11-17T08:08:48.449Z,3.33
2022-11-17T08:11:19.399Z,2.77
2022-11-17T08:13:50.082Z,3.00
2022-11-17T08:16:19.269Z,3.00
2022-11-17T08:18:52.041Z,2.93
2022-11-17T08:21:21.063Z,3.53
2022-11-17T08:23:52.277Z,2.43
2022-11-17T08:26:22.045Z,2.23
2022-11-17T08:28:55.240Z,3.37
2022-11-17T08:31:27.165Z,2.60
2022-11-17T08:33:55.732Z,2.80
2022-11-17T08:36:24.164Z,3.00
2022-11-17T08:38:52.667Z,3.03
2022-11-17T08:41:22.584Z,2.73
2022-11-17T08:43:52.420Z,3.47
2022-11-17T08:46:20.905Z,3.60
2022-11-17T08:48:55.457Z,3.63
2022-11-17T08:51:25.413Z,2.80
2022-11-17T08:53:53.946Z,3.70
2022-11-17T08:56:23.809Z,2.97
2022-11-17T08:58:52.180Z,3.23
2022-11-17T09:01:20.663Z,3.93
2022-11-17T09:03:49.589Z,4.17
2022-11-17T09:06:20.061Z,3.17
2022-11-17T09:08:48.935Z,2.50
2022-11-17T09:11:17.631Z,2.50
2022-11-17T09:13:47.945Z,2.57
2022-11-17T09:16:16.958Z,2.33
2022-11-17T09:18:45.418Z,3.67
2022-11-17T09:21:15.568Z,4.23
2022-11-17T09:23:47.246Z,4.17
2022-11-17T09:26:16.579Z,2.80
2022-11-17T09:28:45.461Z,3.27
2022-11-17T09:31:16.339Z,4.03
2022-11-17T09:33:45.084Z,3.83
2022-11-17T09:36:14.125Z,3.70
2022-11-17T09:38:46.753Z,3.83
2022-11-17T09:41:26.312Z,3.27
2022-11-17T09:44:08.671Z,2.83
2022-11-17T09:46:46.776Z,2.30
2022-11-17T09:49:19.731Z,2.57
2022-11-17T09:51:50.268Z,2.57
2022-11-17T09:54:22.026Z,2.70
2022-11-17T09:56:51.167Z,2.37
2022-11-17T09:59:21.387Z,3.13
2022-11-17T10:01:51.199Z,2.50
2022-11-17T10:04:20.261Z,1.60
2022-11-17T10:06:51.042Z,1.90
2022-11-17T10:09:25.718Z,1.90
2022-11-17T10:11:55.774Z,1.90
2022-11-17T10:14:24.548Z,1.90
2022-11-17T10:16:55.774Z,2.23
2022-11-17T10:19:27.884Z,1.90
2022-11-17T10:21:59.548Z,2.27
2022-11-17T10:24:37.905Z,2.10
2022-11-17T10:27:07.649Z,1.60
2022-11-17T10:29:36.151Z,2.20
2022-11-17T10:32:10.040Z,2.63
2022-11-17T10:34:41.656Z,2.00
2022-11-17T10:37:24.834Z,2.93
2022-11-17T10:40:04.153Z,3.00
2022-11-17T10:42:32.608Z,2.87
2022-11-17T10:45:02.538Z,2.83
2022-11-17T10:47:33.681Z,2.80
2022-11-17T10:50:21.687Z,2.70
2022-11-17T10:52:50.809Z,2.80
2022-11-17T10:55:27.269Z,2.60
2022-11-17T10:57:58.411Z,3.20
2022-11-17T11:00:28.960Z,2.67
2022-11-17T11:03:09.815Z,3.60
2022-11-17T11:05:39.244Z,2.60
2022-11-17T11:08:16.006Z,3.00
2022-11-17T11:10:44.902Z,3.47
2022-11-17T11:13:17.732Z,3.10
2022-11-17T11:15:46.625Z,2.40
2022-11-17T11:18:17.517Z,2.60
2022-11-17T11:20:47.832Z,3.03
2022-11-17T11:23:19.451Z,2.57
2022-11-17T11:25:51.029Z,2.67
2022-11-17T11:28:30.737Z,2.90
2022-11-17T11:31:02.067Z,2.90
2022-11-17T11:33:36.094Z,2.53
2022-11-17T11:36:24.087Z,2.93
2022-11-17T11:38:57.174Z,2.40
2022-11-17T11:41:36.557Z,2.80
2022-11-17T11:44:18.915Z,2.13
2022-11-17T11:46:51.182Z,3.33
2022-11-17T11:49:28.887Z,4.30
2022-11-17T11:51:57.371Z,3.13
2022-11-17T11:54:29.311Z,3.50
2022-11-17T11:56:57.953Z,2.80
2022-11-17T11:59:31.001Z,2.77
2022-11-17T12:02:04.604Z,2.60
2022-11-17T12:04:40.120Z,2.53
2022-11-17T12:07:13.623Z,2.40
2022-11-17T12:09:46.514Z,2.00
2022-11-17T12:12:16.685Z,2.60
2022-11-17T12:15:00.157Z,2.53
2022-11-17T12:17:28.552Z,2.00
2022-11-17T12:19:59.790Z,2.37
2022-11-17T12:22:43.101Z,2.37
2022-11-17T12:25:17.442Z,2.30
2022-11-17T12:27:47.388Z,2.00
2022-11-17T12:30:30.622Z,1.83
2022-11-17T12:32:59.948Z,1.70
2022-11-17T12:35:31.104Z,2.20
2022-11-17T12:38:18.830Z,2.00
2022-11-17T12:40:51.542Z,1.80
2022-11-17T12:43:24.017Z,2.10
2022-11-17T12:46:00.748Z,2.30
2022-11-17T12:48:34.676Z,2.20
2022-11-17T12:51:07.049Z,2.27
2022-11-17T12:53:45.706Z,2.43
2022-11-17T12:56:35.127Z,2.20
2022-11-17T12:59:17.868Z,1.97
2022-11-17T13:01:50.946Z,1.90
2022-11-17T13:04:20.702Z,2.80
2022-11-17T13:07:04.346Z,3.37
2022-11-17T13:09:34.513Z,1.97
2022-11-17T13:12:04.344Z,2.50
2022-11-17T13:14:32.886Z,2.47
2022-11-17T13:17:01.933Z,2.93
2022-11-17T13:19:35.706Z,2.13
2022-11-17T13:22:06.143Z,2.70
2022-11-17T13:24:35.874Z,2.30
2022-11-17T13:27:07.345Z,3.33
2022-11-17T13:29:35.796Z,2.73
2022-11-17T13:32:13.484Z,2.40
2022-11-17T13:34:47.474Z,2.00
2022-11-17T13:37:19.208Z,2.10
2022-11-17T13:40:08.851Z,2.73
2022-11-17T13:42:37.211Z,3.20
2022-11-17T13:45:06.964Z,2.60
2022-11-17T13:47:46.610Z,2.83
2022-11-17T13:50:25.630Z,2.63
2022-11-17T13:52:56.722Z,2.33
2022-11-17T13:55:25.911Z,2.50
2022-11-17T13:57:58.581Z,2.37
2022-11-17T14:00:27.139Z,3.00
2022-11-17T14:02:55.947Z,2.90
2022-11-17T14:05:25.926Z,2.77
2022-11-17T14:07:56.918Z,3.10
2022-11-17T14:10:29.291Z,1.97
2022-11-17T14:13:17.624Z,2.23
2022-11-17T14:15:53.861Z,2.80
2022-11-17T14:18:25.790Z,3.30
2022-11-17T14:21:05.960Z,4.23
2022-11-17T14:23:35.772Z,3.17
2022-11-17T14:26:04.312Z,3.77
2022-11-17T14:28:32.944Z,4.63
2022-11-17T14:31:01.455Z,4.17
2022-11-17T14:33:29.864Z,4.03
2022-11-17T14:35:59.771Z,4.60
2022-11-17T14:38:28.310Z,3.30
2022-11-17T14:40:58.237Z,2.97
2022-11-17T14:43:27.023Z,3.97
2022-11-17T14:45:55.468Z,2.73
2022-11-17T14:48:24.036Z,3.80
2022-11-17T14:50:57.027Z,4.43
2022-11-17T14:53:26.477Z,3.93
2022-11-17T14:55:54.959Z,4.27
2022-11-17T14:58:24.717Z,3.57
2022-11-17T15:00:53.179Z,4.50
2022-11-17T15:03:21.596Z,4.23
2022-11-17T15:05:50.577Z,4.93
2022-11-17T15:08:18.941Z,4.13
2022-11-17T15:10:51.342Z,3.87
2022-11-17T15:13:19.700Z,3.57
2022-11-17T15:15:49.501Z,3.50
2022-11-17T15:18:18.182Z,3.47
2022-11-17T15:20:46.660Z,3.60
2022-11-17T15:23:15.214Z,4.17
2022-11-17T15:25:43.639Z,3.70
2022-11-17T15:28:18.912Z,3.30
2022-11-17T15:30:51.135Z,4.10
2022-11-17T15:33:19.967Z,3.80
2022-11-17T15:35:48.481Z,4.03
2022-11-17T15:38:16.958Z,3.30
2022-11-17T15:40:45.442Z,4.20
2022-11-17T15:43:13.852Z,3.30
2022-11-17T15:45:42.253Z,3.60
2022-11-17T15:48:17.537Z,3.47
2022-11-17T15:50:47.176Z,4.13
2022-11-17T15:53:15.573Z,4.00
2022-11-17T15:55:44.015Z,4.37
2022-11-17T15:58:12.450Z,3.80
2022-11-17T16:00:41.262Z,3.53
2022-11-17T16:03:09.757Z,2.47
2022-11-17T16:05:39.589Z,3.13
2022-11-17T16:08:09.431Z,2.80
2022-11-17T16:10:37.902Z,3.57
2022-11-17T16:13:07.745Z,2.83
2022-11-17T16:15:36.206Z,3.10
2022-11-17T16:18:04.585Z,3.50
2022-11-17T16:20:33.030Z,3.90
2022-11-17T16:23:02.784Z,4.13
2022-11-17T16:25:31.112Z,3.13
2022-11-17T16:27:59.497Z,3.93
2022-11-17T16:30:32.753Z,3.63
2022-11-17T16:33:04.044Z,3.70
2022-11-17T16:35:32.372Z,2.77
2022-11-17T16:38:00.723Z,2.57
2022-11-17T16:40:30.421Z,3.47
2022-11-17T16:42:59.409Z,3.50
2022-11-17T16:45:27.749Z,3.03
2022-11-17T16:47:56.146Z,2.97
2022-11-17T16:50:24.548Z,3.23
2022-11-17T16:52:52.874Z,3.73
2022-11-17T16:55:21.206Z,4.13
2022-11-17T16:57:50.967Z,3.43
2022-11-17T17:00:19.538Z,4.20
2022-11-17T17:02:50.823Z,3.57
2022-11-17T17:05:19.316Z,3.70
2022-11-17T17:07:47.599Z,3.63
2022-11-17T17:10:18.442Z,3.87
2022-11-17T17:12:46.872Z,3.17
2022-11-17T17:15:16.657Z,3.80
2022-11-17T17:17:44.991Z,3.53
2022-11-17T17:20:13.706Z,3.10
2022-11-17T17:22:42.098Z,3.57
2022-11-17T17:25:10.933Z,3.23
2022-11-17T17:27:39.259Z,3.57
2022-11-17T17:30:08.188Z,2.50
2022-11-17T17:32:37.863Z,2.80
2022-11-17T17:35:06.831Z,3.17
2022-11-17T17:37:35.159Z,3.40
2022-11-17T17:40:04.106Z,3.80
2022-11-17T17:42:32.416Z,2.30
2022-11-17T17:45:00.789Z,3.40
2022-11-17T17:47:29.132Z,3.67
2022-11-17T17:49:58.873Z,2.90
2022-11-17T17:52:27.243Z,3.73
2022-11-17T17:54:55.567Z,3.00
2022-11-17T17:57:23.904Z,3.60
2022-11-17T17:59:52.241Z,2.90
2022-11-17T18:02:20.576Z,3.30
2022-11-17T18:04:48.973Z,2.70
2022-11-17T18:07:18.726Z,3.00
2022-11-17T18:09:47.394Z,2.70
2022-11-17T18:12:15.980Z,4.20
2022-11-17T18:14:44.639Z,3.23
2022-11-17T18:17:13.026Z,2.50
2022-11-17T18:19:41.347Z,2.93
2022-11-17T18:22:09.643Z,4.20
2022-11-17T18:24:39.354Z,2.53
2022-11-17T18:27:07.928Z,3.27
2022-11-17T18:29:36.250Z,3.43
2022-11-17T18:32:04.677Z,2.70
2022-11-17T18:34:33.030Z,2.97
2022-11-17T18:37:01.381Z,2.80
2022-11-17T18:39:31.333Z,2.97
2022-11-17T18:42:01.050Z,3.77
2022-11-17T18:44:30.769Z,3.17
2022-11-17T18:47:02.819Z,2.50
2022-11-17T18:49:31.833Z,2.33
2022-11-17T18:52:00.193Z,2.93
2022-11-17T18:54:28.642Z,3.27
2022-11-17T18:56:57.193Z,4.00
2022-11-17T18:59:26.935Z,3.83
2022-11-17T19:01:55.344Z,3.37
2022-11-17T19:04:23.728Z,2.87
2022-11-17T19:06:52.169Z,2.50
2022-11-17T19:09:20.645Z,3.00
2022-11-17T19:11:49.028Z,2.90
2022-11-17T19:14:17.407Z,3.30
2022-11-17T19:16:49.486Z,3.40
2022-11-17T19:19:18.982Z,3.70
2022-11-17T19:21:47.618Z,2.17
2022-11-17T19:24:16.057Z,3.40
2022-11-17T19:26:44.455Z,3.13
2022-11-17T19:29:17.317Z,2.37
2022-11-17T19:31:47.579Z,3.33
2022-11-17T19:34:16.393Z,2.10
2022-11-17T19:36:45.406Z,2.63
2022-11-17T19:39:15.059Z,2.93
2022-11-17T19:41:44.925Z,3.13
2022-11-17T19:44:13.385Z,4.13
2022-11-17T19:46:42.603Z,3.33
2022-11-17T19:49:13.132Z,3.50
2022-11-17T19:51:41.885Z,3.03
2022-11-17T19:54:10.930Z,3.70
2022-11-17T19:56:39.369Z,2.67
2022-11-17T19:59:14.000Z,3.40
2022-11-17T20:01:44.369Z,3.63
2022-11-17T20:04:14.128Z,2.57
2022-11-17T20:06:42.498Z,2.87
2022-11-17T20:09:12.130Z,3.40
2022-11-17T20:11:41.006Z,2.80
2022-11-17T20:14:09.524Z,3.63
2022-11-17T20:16:38.709Z,4.27
2022-11-17T20:19:07.160Z,3.30
2022-11-17T20:21:36.883Z,2.40
2022-11-17T20:24:05.433Z,3.60
2022-11-17T20:26:35.172Z,4.27
2022-11-17T20:29:03.556Z,3.40
2022-11-17T20:31:32.523Z,3.20
2022-11-17T20:34:01.306Z,3.23
2022-11-17T20:36:30.604Z,3.10
2022-11-17T20:39:01.338Z,4.10
2022-11-17T20:41:29.911Z,4.07
2022-11-17T20:43:59.148Z,4.23
2022-11-17T20:46:28.080Z,2.77
2022-11-17T20:48:56.675Z,3.83
2022-11-17T20:51:25.584Z,2.63
2022-11-17T20:53:53.982Z,3.00
2022-11-17T20:56:23.706Z,4.27
2022-11-17T20:58:52.043Z,3.03
2022-11-17T21:01:21.854Z,2.90
2022-11-17T21:03:50.449Z,4.30
2022-11-17T21:06:19.630Z,3.43
2022-11-17T21:08:48.225Z,4.67
2022-11-17T21:11:31.819Z,4.07
2022-11-17T21:14:01.780Z,2.67
2022-11-17T21:16:30.356Z,2.77
2022-11-17T21:18:58.832Z,2.87
2022-11-17T21:21:27.172Z,3.10
2022-11-17T21:23:55.900Z,3.37
2022-11-17T21:26:24.855Z,3.87
2022-11-17T21:28:53.537Z,3.10
2022-11-17T21:31:24.574Z,3.53
2022-11-17T21:33:54.737Z,3.73
2022-11-17T21:36:23.818Z,4.17
2022-11-17T21:38:52.548Z,3.37
2022-11-17T21:41:21.842Z,3.37
2022-11-17T21:43:50.982Z,3.07
2022-11-17T21:46:20.599Z,2.20
2022-11-17T21:48:50.675Z,2.97
2022-11-17T21:51:19.898Z,3.03
2022-11-17T21:53:48.554Z,2.97
2022-11-17T21:56:16.832Z,3.13
2022-11-17T21:58:45.181Z,3.10
2022-11-17T22:01:14.857Z,3.33
2022-11-17T22:03:43.573Z,3.03
2022-11-17T22:06:14.896Z,3.00
2022-11-17T22:08:44.118Z,3.30
2022-11-17T22:11:13.173Z,3.00
2022-11-17T22:13:41.566Z,2.50
2022-11-17T22:16:12.023Z,3.53
2022-11-17T22:18:40.667Z,2.67
2022-11-17T22:21:09.933Z,2.90
2022-11-17T22:23:39.648Z,3.57
2022-11-17T22:26:08.117Z,3.03
2022-11-17T22:28:36.434Z,3.10
2022-11-17T22:31:06.863Z,2.03
2022-11-17T22:33:35.374Z,2.53
2022-11-17T22:36:04.604Z,2.90
2022-11-17T22:38:33.011Z,3.47
2022-11-17T22:41:03.258Z,2.90
2022-11-17T22:43:32.037Z,2.33
2022-11-17T22:46:03.023Z,2.90
2022-11-17T22:48:31.693Z,2.60
2022-11-17T22:51:00.133Z,3.13
2022-11-17T22:53:28.923Z,2.80
2022-11-17T22:55:57.246Z,2.23
2022-11-17T22:58:26.876Z,1.93
2022-11-17T23:00:56.459Z,2.93
2022-11-17T23:03:24.942Z,2.33
2022-11-17T23:05:53.311Z,2.67
2022-11-17T23:08:21.695Z,2.83
2022-11-17T23:10:51.795Z,3.30
2022-11-17T23:13:29.780Z,2.30
2022-11-17T23:15:58.205Z,2.20
2022-11-17T23:18:26.900Z,3.27
2022-11-17T23:20:55.287Z,3.27
2022-11-17T23:23:23.619Z,3.67
2022-11-17T23:25:51.944Z,3.90
2022-11-17T23:28:20.292Z,3.90
2022-11-17T23:30:50.056Z,3.67
2022-11-17T23:33:18.447Z,4.50
2022-11-17T23:35:46.789Z,3.97
2022-11-17T23:38:15.109Z,3.70
2022-11-17T23:40:43.472Z,3.20
2022-11-17T23:43:11.777Z,3.93
2022-11-17T23:45:40.103Z,4.17
2022-11-17T23:48:09.843Z,4.47
2022-11-17T23:50:38.643Z,2.93
2022-11-17T23:53:06.946Z,4.30
2022-11-17T23:55:35.291Z,2.43
2022-11-17T23:58:03.635Z,3.30
